sensor_id;sensor_type;location;lat;lon;timestamp;temperature;humidity
65046;DHT22;54657;52.022;5.534;2023-07-31T00:00:05;17.20;94.00
65046;DHT22;54657;52.022;5.534;2023-07-31T00:02:31;17.20;94.10
65046;DHT22;54657;52.022;5.534;2023-07-31T00:04:56;17.20;93.80
65046;DHT22;54657;52.022;5.534;2023-07-31T00:07:22;17.30;93.70
65046;DHT22;54657;52.022;5.534;2023-07-31T00:09:48;17.30;93.90
65046;DHT22;54657;52.022;5.534;2023-07-31T00:12:13;17.30;93.70
65046;DHT22;54657;52.022;5.534;2023-07-31T00:14:39;17.30;93.90
65046;DHT22;54657;52.022;5.534;2023-07-31T00:17:05;17.30;93.90
65046;DHT22;54657;52.022;5.534;2023-07-31T00:19:30;17.30;94.00
65046;DHT22;54657;52.022;5.534;2023-07-31T00:21:56;17.30;94.30
65046;DHT22;54657;52.022;5.534;2023-07-31T00:24:21;17.30;94.40
65046;DHT22;54657;52.022;5.534;2023-07-31T00:26:47;17.30;94.60
65046;DHT22;54657;52.022;5.534;2023-07-31T00:29:12;17.30;94.50
65046;DHT22;54657;52.022;5.534;2023-07-31T00:31:38;17.30;94.70
65046;DHT22;54657;52.022;5.534;2023-07-31T00:34:03;17.30;94.80
65046;DHT22;54657;52.022;5.534;2023-07-31T00:36:29;17.40;94.70
65046;DHT22;54657;52.022;5.534;2023-07-31T00:38:55;17.40;94.80
65046;DHT22;54657;52.022;5.534;2023-07-31T00:41:21;17.50;95.20
65046;DHT22;54657;52.022;5.534;2023-07-31T00:43:47;17.50;94.90
65046;DHT22;54657;52.022;5.534;2023-07-31T00:46:13;17.60;95.10
65046;DHT22;54657;52.022;5.534;2023-07-31T00:48:39;17.60;95.00
65046;DHT22;54657;52.022;5.534;2023-07-31T00:51:06;17.70;95.20
65046;DHT22;54657;52.022;5.534;2023-07-31T00:53:32;17.70;95.00
65046;DHT22;54657;52.022;5.534;2023-07-31T00:55:58;17.80;95.20
65046;DHT22;54657;52.022;5.534;2023-07-31T00:58:23;17.80;95.30
65046;DHT22;54657;52.022;5.534;2023-07-31T01:00:49;17.80;95.40
65046;DHT22;54657;52.022;5.534;2023-07-31T01:03:16;17.80;95.30
65046;DHT22;54657;52.022;5.534;2023-07-31T01:06:31;17.90;95.10
65046;DHT22;54657;52.022;5.534;2023-07-31T01:09:07;17.90;96.80
65046;DHT22;54657;52.022;5.534;2023-07-31T01:11:41;17.90;95.60
65046;DHT22;54657;52.022;5.534;2023-07-31T01:14:08;17.90;95.70
65046;DHT22;54657;52.022;5.534;2023-07-31T01:16:33;17.90;95.40
65046;DHT22;54657;52.022;5.534;2023-07-31T01:18:59;17.90;95.80
65046;DHT22;54657;52.022;5.534;2023-07-31T01:24:22;18.00;96.90
65046;DHT22;54657;52.022;5.534;2023-07-31T01:27:14;18.00;96.30
65046;DHT22;54657;52.022;5.534;2023-07-31T01:32:19;18.00;95.60
65046;DHT22;54657;52.022;5.534;2023-07-31T01:34:46;18.00;95.70
65046;DHT22;54657;52.022;5.534;2023-07-31T01:37:12;18.00;95.40
65046;DHT22;54657;52.022;5.534;2023-07-31T01:39:37;18.00;95.50
65046;DHT22;54657;52.022;5.534;2023-07-31T01:42:03;18.10;95.40
65046;DHT22;54657;52.022;5.534;2023-07-31T01:44:28;18.10;95.50
65046;DHT22;54657;52.022;5.534;2023-07-31T01:46:54;18.10;95.60
65046;DHT22;54657;52.022;5.534;2023-07-31T01:49:20;18.10;95.80
65046;DHT22;54657;52.022;5.534;2023-07-31T01:51:45;18.10;95.70
65046;DHT22;54657;52.022;5.534;2023-07-31T01:54:11;18.00;95.80
65046;DHT22;54657;52.022;5.534;2023-07-31T01:56:36;18.00;95.90
65046;DHT22;54657;52.022;5.534;2023-07-31T01:59:02;18.00;95.70
65046;DHT22;54657;52.022;5.534;2023-07-31T02:01:27;18.00;95.80
65046;DHT22;54657;52.022;5.534;2023-07-31T02:03:53;18.00;95.70
65046;DHT22;54657;52.022;5.534;2023-07-31T02:06:19;18.00;96.00
65046;DHT22;54657;52.022;5.534;2023-07-31T02:08:45;18.00;96.10
65046;DHT22;54657;52.022;5.534;2023-07-31T02:11:10;17.90;96.10
65046;DHT22;54657;52.022;5.534;2023-07-31T02:13:36;17.90;96.20
65046;DHT22;54657;52.022;5.534;2023-07-31T02:16:01;17.90;96.00
65046;DHT22;54657;52.022;5.534;2023-07-31T02:18:27;17.90;96.10
65046;DHT22;54657;52.022;5.534;2023-07-31T02:20:53;17.90;96.20
65046;DHT22;54657;52.022;5.534;2023-07-31T02:23:19;17.80;96.10
65046;DHT22;54657;52.022;5.534;2023-07-31T02:25:45;17.90;96.10
65046;DHT22;54657;52.022;5.534;2023-07-31T02:28:11;17.80;96.10
65046;DHT22;54657;52.022;5.534;2023-07-31T02:30:37;17.90;96.00
65046;DHT22;54657;52.022;5.534;2023-07-31T02:33:03;17.90;96.10
65046;DHT22;54657;52.022;5.534;2023-07-31T02:35:28;17.90;96.00
65046;DHT22;54657;52.022;5.534;2023-07-31T02:37:54;17.90;96.00
65046;DHT22;54657;52.022;5.534;2023-07-31T02:40:19;17.90;96.00
65046;DHT22;54657;52.022;5.534;2023-07-31T02:42:45;17.90;96.10
65046;DHT22;54657;52.022;5.534;2023-07-31T02:45:11;18.00;96.00
65046;DHT22;54657;52.022;5.534;2023-07-31T02:47:36;18.00;96.10
65046;DHT22;54657;52.022;5.534;2023-07-31T02:50:03;17.90;96.20
65046;DHT22;54657;52.022;5.534;2023-07-31T02:52:29;17.90;96.10
65046;DHT22;54657;52.022;5.534;2023-07-31T02:54:54;18.00;96.00
65046;DHT22;54657;52.022;5.534;2023-07-31T02:57:20;18.00;96.20
65046;DHT22;54657;52.022;5.534;2023-07-31T02:59:45;18.00;96.20
65046;DHT22;54657;52.022;5.534;2023-07-31T03:02:11;18.00;96.20
65046;DHT22;54657;52.022;5.534;2023-07-31T03:04:38;18.00;96.20
65046;DHT22;54657;52.022;5.534;2023-07-31T03:07:04;17.90;96.20
65046;DHT22;54657;52.022;5.534;2023-07-31T03:09:30;17.90;96.10
65046;DHT22;54657;52.022;5.534;2023-07-31T03:11:55;17.90;96.30
65046;DHT22;54657;52.022;5.534;2023-07-31T03:14:21;17.90;96.30
65046;DHT22;54657;52.022;5.534;2023-07-31T03:16:47;17.90;96.30
65046;DHT22;54657;52.022;5.534;2023-07-31T03:19:12;17.90;96.20
65046;DHT22;54657;52.022;5.534;2023-07-31T03:21:38;17.90;96.20
65046;DHT22;54657;52.022;5.534;2023-07-31T03:24:04;17.90;96.30
65046;DHT22;54657;52.022;5.534;2023-07-31T03:26:31;17.90;96.20
65046;DHT22;54657;52.022;5.534;2023-07-31T03:28:57;17.90;96.10
65046;DHT22;54657;52.022;5.534;2023-07-31T03:31:22;17.90;96.10
65046;DHT22;54657;52.022;5.534;2023-07-31T03:33:48;17.90;96.30
65046;DHT22;54657;52.022;5.534;2023-07-31T03:36:13;17.90;96.10
65046;DHT22;54657;52.022;5.534;2023-07-31T03:38:39;17.90;96.20
65046;DHT22;54657;52.022;5.534;2023-07-31T03:41:04;17.90;96.10
65046;DHT22;54657;52.022;5.534;2023-07-31T03:43:31;17.90;96.00
65046;DHT22;54657;52.022;5.534;2023-07-31T03:45:59;17.90;96.20
65046;DHT22;54657;52.022;5.534;2023-07-31T03:48:25;17.90;96.10
65046;DHT22;54657;52.022;5.534;2023-07-31T03:50:51;17.90;96.10
65046;DHT22;54657;52.022;5.534;2023-07-31T03:53:16;17.90;96.00
65046;DHT22;54657;52.022;5.534;2023-07-31T03:55:42;17.90;95.90
65046;DHT22;54657;52.022;5.534;2023-07-31T03:58:07;17.90;96.10
65046;DHT22;54657;52.022;5.534;2023-07-31T04:00:33;17.80;96.00
65046;DHT22;54657;52.022;5.534;2023-07-31T04:02:58;17.80;96.00
65046;DHT22;54657;52.022;5.534;2023-07-31T04:05:24;17.80;96.00
65046;DHT22;54657;52.022;5.534;2023-07-31T04:07:50;17.80;96.00
65046;DHT22;54657;52.022;5.534;2023-07-31T04:10:15;17.70;96.10
65046;DHT22;54657;52.022;5.534;2023-07-31T04:12:41;17.70;96.10
65046;DHT22;54657;52.022;5.534;2023-07-31T04:15:07;17.70;96.10
65046;DHT22;54657;52.022;5.534;2023-07-31T04:17:32;17.80;96.00
65046;DHT22;54657;52.022;5.534;2023-07-31T04:19:58;17.70;96.00
65046;DHT22;54657;52.022;5.534;2023-07-31T04:22:23;17.80;96.00
65046;DHT22;54657;52.022;5.534;2023-07-31T04:24:49;17.80;95.90
65046;DHT22;54657;52.022;5.534;2023-07-31T04:27:15;17.80;95.90
65046;DHT22;54657;52.022;5.534;2023-07-31T04:29:40;17.80;95.90
65046;DHT22;54657;52.022;5.534;2023-07-31T04:32:08;17.80;95.80
65046;DHT22;54657;52.022;5.534;2023-07-31T04:34:33;17.80;95.80
65046;DHT22;54657;52.022;5.534;2023-07-31T04:36:59;17.80;95.90
65046;DHT22;54657;52.022;5.534;2023-07-31T04:39:24;17.80;95.90
65046;DHT22;54657;52.022;5.534;2023-07-31T04:41:50;17.80;95.80
65046;DHT22;54657;52.022;5.534;2023-07-31T04:44:16;17.80;95.90
65046;DHT22;54657;52.022;5.534;2023-07-31T04:46:41;17.80;95.90
65046;DHT22;54657;52.022;5.534;2023-07-31T04:49:07;17.80;96.00
65046;DHT22;54657;52.022;5.534;2023-07-31T04:51:32;17.80;95.90
65046;DHT22;54657;52.022;5.534;2023-07-31T04:53:58;17.70;96.00
65046;DHT22;54657;52.022;5.534;2023-07-31T04:56:24;17.70;96.10
65046;DHT22;54657;52.022;5.534;2023-07-31T04:58:49;17.80;96.00
65046;DHT22;54657;52.022;5.534;2023-07-31T05:01:15;17.70;96.10
65046;DHT22;54657;52.022;5.534;2023-07-31T05:03:40;17.70;96.10
65046;DHT22;54657;52.022;5.534;2023-07-31T05:06:06;17.70;96.20
65046;DHT22;54657;52.022;5.534;2023-07-31T05:08:32;17.70;96.20
65046;DHT22;54657;52.022;5.534;2023-07-31T05:10:58;17.70;96.20
65046;DHT22;54657;52.022;5.534;2023-07-31T05:13:24;17.60;96.20
65046;DHT22;54657;52.022;5.534;2023-07-31T05:15:49;17.60;96.30
65046;DHT22;54657;52.022;5.534;2023-07-31T05:18:15;17.70;96.30
65046;DHT22;54657;52.022;5.534;2023-07-31T05:20:40;17.60;96.20
65046;DHT22;54657;52.022;5.534;2023-07-31T05:23:06;17.70;96.20
65046;DHT22;54657;52.022;5.534;2023-07-31T05:25:32;17.70;96.30
65046;DHT22;54657;52.022;5.534;2023-07-31T05:27:58;17.60;96.40
65046;DHT22;54657;52.022;5.534;2023-07-31T05:30:23;17.60;96.30
65046;DHT22;54657;52.022;5.534;2023-07-31T05:32:49;17.60;96.50
65046;DHT22;54657;52.022;5.534;2023-07-31T05:35:15;17.60;96.50
65046;DHT22;54657;52.022;5.534;2023-07-31T05:37:40;17.50;96.70
65046;DHT22;54657;52.022;5.534;2023-07-31T05:40:06;17.60;96.60
65046;DHT22;54657;52.022;5.534;2023-07-31T05:42:32;17.60;96.70
65046;DHT22;54657;52.022;5.534;2023-07-31T05:44:57;17.50;96.80
65046;DHT22;54657;52.022;5.534;2023-07-31T05:47:23;17.50;96.80
65046;DHT22;54657;52.022;5.534;2023-07-31T05:49:49;17.50;97.00
65046;DHT22;54657;52.022;5.534;2023-07-31T05:52:18;17.50;97.00
65046;DHT22;54657;52.022;5.534;2023-07-31T05:54:43;17.40;97.10
65046;DHT22;54657;52.022;5.534;2023-07-31T05:57:09;17.40;97.10
65046;DHT22;54657;52.022;5.534;2023-07-31T05:59:34;17.40;97.20
65046;DHT22;54657;52.022;5.534;2023-07-31T06:02:00;17.40;97.30
65046;DHT22;54657;52.022;5.534;2023-07-31T06:04:25;17.40;97.40
65046;DHT22;54657;52.022;5.534;2023-07-31T06:06:51;17.30;97.50
65046;DHT22;54657;52.022;5.534;2023-07-31T06:09:17;17.40;97.40
65046;DHT22;54657;52.022;5.534;2023-07-31T06:11:42;17.40;97.40
65046;DHT22;54657;52.022;5.534;2023-07-31T06:14:08;17.40;97.30
65046;DHT22;54657;52.022;5.534;2023-07-31T06:16:34;17.40;97.30
65046;DHT22;54657;52.022;5.534;2023-07-31T06:18:59;17.40;97.40
65046;DHT22;54657;52.022;5.534;2023-07-31T06:21:25;17.50;97.40
65046;DHT22;54657;52.022;5.534;2023-07-31T06:23:51;17.50;97.20
65046;DHT22;54657;52.022;5.534;2023-07-31T06:26:16;17.50;97.20
65046;DHT22;54657;52.022;5.534;2023-07-31T06:28:42;17.50;97.30
65046;DHT22;54657;52.022;5.534;2023-07-31T06:31:07;17.50;97.40
65046;DHT22;54657;52.022;5.534;2023-07-31T06:33:33;17.50;97.50
65046;DHT22;54657;52.022;5.534;2023-07-31T06:35:58;17.50;97.60
65046;DHT22;54657;52.022;5.534;2023-07-31T06:38:25;17.50;97.60
65046;DHT22;54657;52.022;5.534;2023-07-31T06:40:51;17.60;97.80
65046;DHT22;54657;52.022;5.534;2023-07-31T06:43:17;17.60;97.50
65046;DHT22;54657;52.022;5.534;2023-07-31T06:45:43;17.60;97.50
65046;DHT22;54657;52.022;5.534;2023-07-31T06:48:08;17.60;97.50
65046;DHT22;54657;52.022;5.534;2023-07-31T06:50:34;17.60;97.70
65046;DHT22;54657;52.022;5.534;2023-07-31T06:53:00;17.60;97.70
65046;DHT22;54657;52.022;5.534;2023-07-31T06:55:26;17.60;97.70
65046;DHT22;54657;52.022;5.534;2023-07-31T06:57:53;17.60;97.70
65046;DHT22;54657;52.022;5.534;2023-07-31T07:00:20;17.70;97.70
65046;DHT22;54657;52.022;5.534;2023-07-31T07:02:46;17.70;97.70
65046;DHT22;54657;52.022;5.534;2023-07-31T07:05:16;17.70;97.90
65046;DHT22;54657;52.022;5.534;2023-07-31T07:07:42;17.70;98.00
65046;DHT22;54657;52.022;5.534;2023-07-31T07:10:08;17.80;98.10
65046;DHT22;54657;52.022;5.534;2023-07-31T07:12:34;17.80;98.00
65046;DHT22;54657;52.022;5.534;2023-07-31T07:15:00;17.80;97.70
65046;DHT22;54657;52.022;5.534;2023-07-31T07:17:27;17.90;97.60
65046;DHT22;54657;52.022;5.534;2023-07-31T07:19:53;17.90;97.80
65046;DHT22;54657;52.022;5.534;2023-07-31T07:22:19;17.90;97.60
65046;DHT22;54657;52.022;5.534;2023-07-31T07:24:44;17.90;97.80
65046;DHT22;54657;52.022;5.534;2023-07-31T07:27:10;17.90;97.80
65046;DHT22;54657;52.022;5.534;2023-07-31T07:29:37;17.90;97.70
65046;DHT22;54657;52.022;5.534;2023-07-31T07:32:03;18.00;97.70
65046;DHT22;54657;52.022;5.534;2023-07-31T07:34:29;17.90;97.90
65046;DHT22;54657;52.022;5.534;2023-07-31T07:36:54;18.00;97.90
65046;DHT22;54657;52.022;5.534;2023-07-31T07:39:20;18.00;98.00
65046;DHT22;54657;52.022;5.534;2023-07-31T07:41:46;17.90;97.90
65046;DHT22;54657;52.022;5.534;2023-07-31T07:44:13;17.90;98.00
65046;DHT22;54657;52.022;5.534;2023-07-31T07:46:38;17.90;98.00
65046;DHT22;54657;52.022;5.534;2023-07-31T07:49:04;18.00;98.00
65046;DHT22;54657;52.022;5.534;2023-07-31T07:51:30;18.00;98.00
65046;DHT22;54657;52.022;5.534;2023-07-31T07:53:57;18.00;97.90
65046;DHT22;54657;52.022;5.534;2023-07-31T07:56:25;18.00;98.10
65046;DHT22;54657;52.022;5.534;2023-07-31T07:58:50;18.00;98.10
65046;DHT22;54657;52.022;5.534;2023-07-31T08:01:16;18.00;98.20
65046;DHT22;54657;52.022;5.534;2023-07-31T08:03:42;18.10;98.10
65046;DHT22;54657;52.022;5.534;2023-07-31T08:06:07;18.10;98.20
65046;DHT22;54657;52.022;5.534;2023-07-31T08:08:37;18.10;98.10
65046;DHT22;54657;52.022;5.534;2023-07-31T08:11:03;18.10;98.20
65046;DHT22;54657;52.022;5.534;2023-07-31T08:13:29;18.10;98.30
65046;DHT22;54657;52.022;5.534;2023-07-31T08:15:54;18.10;98.30
65046;DHT22;54657;52.022;5.534;2023-07-31T08:18:20;18.10;98.40
65046;DHT22;54657;52.022;5.534;2023-07-31T08:20:46;18.10;98.50
65046;DHT22;54657;52.022;5.534;2023-07-31T08:23:12;18.20;98.40
65046;DHT22;54657;52.022;5.534;2023-07-31T08:25:38;18.20;98.50
65046;DHT22;54657;52.022;5.534;2023-07-31T08:28:04;18.20;98.50
65046;DHT22;54657;52.022;5.534;2023-07-31T08:30:29;18.20;98.60
65046;DHT22;54657;52.022;5.534;2023-07-31T08:32:55;18.20;98.70
65046;DHT22;54657;52.022;5.534;2023-07-31T08:35:21;18.20;98.70
65046;DHT22;54657;52.022;5.534;2023-07-31T08:37:47;18.20;98.40
65046;DHT22;54657;52.022;5.534;2023-07-31T08:40:12;18.30;98.70
65046;DHT22;54657;52.022;5.534;2023-07-31T08:42:53;18.30;98.60
65046;DHT22;54657;52.022;5.534;2023-07-31T08:45:20;18.30;99.40
65046;DHT22;54657;52.022;5.534;2023-07-31T08:47:47;18.40;98.50
65046;DHT22;54657;52.022;5.534;2023-07-31T08:50:16;18.40;98.60
65046;DHT22;54657;52.022;5.534;2023-07-31T08:52:42;18.40;98.70
65046;DHT22;54657;52.022;5.534;2023-07-31T08:55:09;18.40;98.60
65046;DHT22;54657;52.022;5.534;2023-07-31T08:57:36;18.40;98.60
65046;DHT22;54657;52.022;5.534;2023-07-31T09:00:04;18.40;98.50
65046;DHT22;54657;52.022;5.534;2023-07-31T09:02:37;18.40;98.80
65046;DHT22;54657;52.022;5.534;2023-07-31T09:05:06;18.50;98.80
65046;DHT22;54657;52.022;5.534;2023-07-31T09:07:36;18.50;98.60
65046;DHT22;54657;52.022;5.534;2023-07-31T09:10:03;18.50;98.70
65046;DHT22;54657;52.022;5.534;2023-07-31T09:12:30;18.50;98.70
65046;DHT22;54657;52.022;5.534;2023-07-31T09:14:59;18.50;98.70
65046;DHT22;54657;52.022;5.534;2023-07-31T09:17:33;18.50;98.60
65046;DHT22;54657;52.022;5.534;2023-07-31T09:20:25;18.50;99.60
65046;DHT22;54657;52.022;5.534;2023-07-31T09:22:51;18.50;99.90
65046;DHT22;54657;52.022;5.534;2023-07-31T09:30:15;18.50;99.10
65046;DHT22;54657;52.022;5.534;2023-07-31T09:32:41;18.50;98.80
65046;DHT22;54657;52.022;5.534;2023-07-31T09:35:34;18.50;98.80
65046;DHT22;54657;52.022;5.534;2023-07-31T09:38:07;18.60;99.80
65046;DHT22;54657;52.022;5.534;2023-07-31T09:40:36;18.50;99.00
65046;DHT22;54657;52.022;5.534;2023-07-31T09:43:03;18.60;98.90
65046;DHT22;54657;52.022;5.534;2023-07-31T09:45:30;18.60;98.70
65046;DHT22;54657;52.022;5.534;2023-07-31T09:47:56;18.60;98.80
65046;DHT22;54657;52.022;5.534;2023-07-31T09:50:24;18.60;98.80
65046;DHT22;54657;52.022;5.534;2023-07-31T09:52:50;18.60;98.90
65046;DHT22;54657;52.022;5.534;2023-07-31T09:55:16;18.70;98.80
65046;DHT22;54657;52.022;5.534;2023-07-31T09:57:49;18.70;98.80
65046;DHT22;54657;52.022;5.534;2023-07-31T10:00:17;18.70;99.00
65046;DHT22;54657;52.022;5.534;2023-07-31T10:02:45;18.70;98.90
65046;DHT22;54657;52.022;5.534;2023-07-31T10:05:14;18.70;99.00
65046;DHT22;54657;52.022;5.534;2023-07-31T10:08:03;18.70;99.00
65046;DHT22;54657;52.022;5.534;2023-07-31T10:10:28;18.80;98.90
65046;DHT22;54657;52.022;5.534;2023-07-31T10:12:56;18.80;99.00
65046;DHT22;54657;52.022;5.534;2023-07-31T10:15:21;18.80;99.10
65046;DHT22;54657;52.022;5.534;2023-07-31T10:17:49;18.90;98.90
65046;DHT22;54657;52.022;5.534;2023-07-31T10:20:16;18.90;99.00
65046;DHT22;54657;52.022;5.534;2023-07-31T10:22:45;19.00;98.90
65046;DHT22;54657;52.022;5.534;2023-07-31T10:25:11;19.10;98.90
65046;DHT22;54657;52.022;5.534;2023-07-31T10:27:38;19.10;98.90
65046;DHT22;54657;52.022;5.534;2023-07-31T10:30:06;19.20;98.90
65046;DHT22;54657;52.022;5.534;2023-07-31T10:32:33;19.20;98.90
65046;DHT22;54657;52.022;5.534;2023-07-31T10:35:01;19.20;98.80
65046;DHT22;54657;52.022;5.534;2023-07-31T10:37:36;19.10;98.90
65046;DHT22;54657;52.022;5.534;2023-07-31T10:40:04;19.10;98.80
65046;DHT22;54657;52.022;5.534;2023-07-31T10:42:34;19.20;99.00
65046;DHT22;54657;52.022;5.534;2023-07-31T10:45:05;19.20;98.90
65046;DHT22;54657;52.022;5.534;2023-07-31T10:47:37;19.30;99.20
65046;DHT22;54657;52.022;5.534;2023-07-31T10:52:37;19.30;99.40
65046;DHT22;54657;52.022;5.534;2023-07-31T10:57:51;19.40;99.30
65046;DHT22;54657;52.022;5.534;2023-07-31T11:00:25;19.40;98.80
65046;DHT22;54657;52.022;5.534;2023-07-31T11:05:44;19.50;99.00
65046;DHT22;54657;52.022;5.534;2023-07-31T11:08:27;19.50;99.70
65046;DHT22;54657;52.022;5.534;2023-07-31T11:13:31;19.50;99.70
65046;DHT22;54657;52.022;5.534;2023-07-31T11:15:57;19.40;99.20
65046;DHT22;54657;52.022;5.534;2023-07-31T11:18:24;19.40;99.20
65046;DHT22;54657;52.022;5.534;2023-07-31T11:20:49;19.40;99.10
65046;DHT22;54657;52.022;5.534;2023-07-31T11:23:18;19.40;99.20
65046;DHT22;54657;52.022;5.534;2023-07-31T11:25:44;19.40;99.30
65046;DHT22;54657;52.022;5.534;2023-07-31T11:28:12;19.40;99.40
65046;DHT22;54657;52.022;5.534;2023-07-31T11:30:39;19.40;99.30
65046;DHT22;54657;52.022;5.534;2023-07-31T11:33:07;19.40;99.50
65046;DHT22;54657;52.022;5.534;2023-07-31T11:35:34;19.50;99.30
65046;DHT22;54657;52.022;5.534;2023-07-31T11:38:00;19.50;99.30
65046;DHT22;54657;52.022;5.534;2023-07-31T11:40:26;19.50;99.30
65046;DHT22;54657;52.022;5.534;2023-07-31T11:42:58;19.50;99.10
65046;DHT22;54657;52.022;5.534;2023-07-31T11:45:30;19.60;99.20
65046;DHT22;54657;52.022;5.534;2023-07-31T11:47:56;19.60;99.10
65046;DHT22;54657;52.022;5.534;2023-07-31T11:50:23;19.70;99.10
65046;DHT22;54657;52.022;5.534;2023-07-31T11:52:55;19.70;99.20
65046;DHT22;54657;52.022;5.534;2023-07-31T11:55:22;19.70;99.30
65046;DHT22;54657;52.022;5.534;2023-07-31T11:57:49;19.70;99.20
65046;DHT22;54657;52.022;5.534;2023-07-31T12:00:15;19.70;99.20
65046;DHT22;54657;52.022;5.534;2023-07-31T12:02:42;19.70;99.10
65046;DHT22;54657;52.022;5.534;2023-07-31T12:05:12;19.70;99.10
65046;DHT22;54657;52.022;5.534;2023-07-31T12:07:51;19.80;99.20
65046;DHT22;54657;52.022;5.534;2023-07-31T12:13:09;19.80;99.10
65046;DHT22;54657;52.022;5.534;2023-07-31T12:15:42;19.80;99.50
65046;DHT22;54657;52.022;5.534;2023-07-31T12:18:13;19.80;99.10
65046;DHT22;54657;52.022;5.534;2023-07-31T12:20:43;19.80;98.90
65046;DHT22;54657;52.022;5.534;2023-07-31T12:23:17;19.80;99.20
65046;DHT22;54657;52.022;5.534;2023-07-31T12:25:43;19.70;99.20
65046;DHT22;54657;52.022;5.534;2023-07-31T12:28:08;19.70;98.90
65046;DHT22;54657;52.022;5.534;2023-07-31T12:30:39;19.70;99.00
65046;DHT22;54657;52.022;5.534;2023-07-31T12:33:15;19.70;99.10
65046;DHT22;54657;52.022;5.534;2023-07-31T12:35:46;19.70;99.00
65046;DHT22;54657;52.022;5.534;2023-07-31T12:38:13;19.60;99.30
65046;DHT22;54657;52.022;5.534;2023-07-31T12:40:40;19.70;99.10
65046;DHT22;54657;52.022;5.534;2023-07-31T12:43:07;19.70;99.20
65046;DHT22;54657;52.022;5.534;2023-07-31T12:45:33;19.80;99.20
65046;DHT22;54657;52.022;5.534;2023-07-31T12:47:59;19.80;99.20
65046;DHT22;54657;52.022;5.534;2023-07-31T12:50:26;19.90;99.10
65046;DHT22;54657;52.022;5.534;2023-07-31T12:52:53;19.90;99.10
65046;DHT22;54657;52.022;5.534;2023-07-31T12:55:19;20.00;99.10
65046;DHT22;54657;52.022;5.534;2023-07-31T12:57:45;20.00;99.00
65046;DHT22;54657;52.022;5.534;2023-07-31T13:00:11;20.00;99.00
65046;DHT22;54657;52.022;5.534;2023-07-31T13:02:38;20.00;99.00
65046;DHT22;54657;52.022;5.534;2023-07-31T13:05:04;20.10;99.00
65046;DHT22;54657;52.022;5.534;2023-07-31T13:07:29;20.10;98.90
65046;DHT22;54657;52.022;5.534;2023-07-31T13:09:55;20.10;98.80
65046;DHT22;54657;52.022;5.534;2023-07-31T13:12:20;20.10;98.90
65046;DHT22;54657;52.022;5.534;2023-07-31T13:14:46;20.10;98.80
65046;DHT22;54657;52.022;5.534;2023-07-31T13:17:12;20.20;98.80
65046;DHT22;54657;52.022;5.534;2023-07-31T13:19:37;20.20;98.80
65046;DHT22;54657;52.022;5.534;2023-07-31T13:22:03;20.20;98.80
65046;DHT22;54657;52.022;5.534;2023-07-31T13:24:29;20.20;98.80
65046;DHT22;54657;52.022;5.534;2023-07-31T13:26:56;20.10;98.80
65046;DHT22;54657;52.022;5.534;2023-07-31T13:29:22;20.00;98.90
65046;DHT22;54657;52.022;5.534;2023-07-31T13:31:48;19.90;99.00
65046;DHT22;54657;52.022;5.534;2023-07-31T13:34:13;19.90;99.10
65046;DHT22;54657;52.022;5.534;2023-07-31T13:36:39;19.90;99.10
65046;DHT22;54657;52.022;5.534;2023-07-31T13:39:04;19.90;99.20
65046;DHT22;54657;52.022;5.534;2023-07-31T13:41:30;19.90;99.20
65046;DHT22;54657;52.022;5.534;2023-07-31T13:43:55;19.90;99.20
65046;DHT22;54657;52.022;5.534;2023-07-31T13:46:21;19.90;99.20
65046;DHT22;54657;52.022;5.534;2023-07-31T13:48:46;19.90;99.20
65046;DHT22;54657;52.022;5.534;2023-07-31T13:51:12;19.90;99.30
65046;DHT22;54657;52.022;5.534;2023-07-31T13:53:38;19.90;99.30
65046;DHT22;54657;52.022;5.534;2023-07-31T13:56:03;19.90;99.40
65046;DHT22;54657;52.022;5.534;2023-07-31T13:58:29;19.80;99.40
65046;DHT22;54657;52.022;5.534;2023-07-31T14:00:54;19.80;99.50
65046;DHT22;54657;52.022;5.534;2023-07-31T14:03:20;19.80;99.50
65046;DHT22;54657;52.022;5.534;2023-07-31T14:05:46;19.80;99.60
65046;DHT22;54657;52.022;5.534;2023-07-31T14:08:11;19.80;99.60
65046;DHT22;54657;52.022;5.534;2023-07-31T14:10:37;19.80;99.50
65046;DHT22;54657;52.022;5.534;2023-07-31T14:13:02;19.80;99.50
65046;DHT22;54657;52.022;5.534;2023-07-31T14:15:28;19.80;99.50
65046;DHT22;54657;52.022;5.534;2023-07-31T14:17:54;19.70;99.60
65046;DHT22;54657;52.022;5.534;2023-07-31T14:20:19;19.70;99.60
65046;DHT22;54657;52.022;5.534;2023-07-31T14:22:45;19.70;99.80
65046;DHT22;54657;52.022;5.534;2023-07-31T14:25:10;19.60;99.70
65046;DHT22;54657;52.022;5.534;2023-07-31T14:27:36;19.60;99.90
65046;DHT22;54657;52.022;5.534;2023-07-31T14:30:02;19.60;99.90
65046;DHT22;54657;52.022;5.534;2023-07-31T14:32:28;19.60;99.90
65046;DHT22;54657;52.022;5.534;2023-07-31T14:34:54;19.60;99.90
65046;DHT22;54657;52.022;5.534;2023-07-31T14:37:20;19.60;99.90
65046;DHT22;54657;52.022;5.534;2023-07-31T14:39:46;19.60;99.80
65046;DHT22;54657;52.022;5.534;2023-07-31T14:42:11;19.60;99.90
65046;DHT22;54657;52.022;5.534;2023-07-31T14:44:37;19.60;99.80
65046;DHT22;54657;52.022;5.534;2023-07-31T14:47:03;19.60;99.90
65046;DHT22;54657;52.022;5.534;2023-07-31T14:49:28;19.60;99.80
65046;DHT22;54657;52.022;5.534;2023-07-31T14:51:54;19.50;99.90
65046;DHT22;54657;52.022;5.534;2023-07-31T14:54:20;19.60;99.90
65046;DHT22;54657;52.022;5.534;2023-07-31T14:56:45;19.60;99.90
65046;DHT22;54657;52.022;5.534;2023-07-31T14:59:11;19.50;99.90
65046;DHT22;54657;52.022;5.534;2023-07-31T15:01:37;19.50;99.90
65046;DHT22;54657;52.022;5.534;2023-07-31T15:04:03;19.50;99.90
65046;DHT22;54657;52.022;5.534;2023-07-31T15:06:29;19.50;99.90
65046;DHT22;54657;52.022;5.534;2023-07-31T15:08:54;19.50;99.90
65046;DHT22;54657;52.022;5.534;2023-07-31T15:11:20;19.50;99.90
65046;DHT22;54657;52.022;5.534;2023-07-31T15:13:45;19.50;99.90
65046;DHT22;54657;52.022;5.534;2023-07-31T15:16:11;19.50;99.90
65046;DHT22;54657;52.022;5.534;2023-07-31T15:18:37;19.50;99.90
65046;DHT22;54657;52.022;5.534;2023-07-31T15:21:02;19.40;99.90
65046;DHT22;54657;52.022;5.534;2023-07-31T15:23:29;19.40;99.90
65046;DHT22;54657;52.022;5.534;2023-07-31T15:25:55;19.40;99.90
65046;DHT22;54657;52.022;5.534;2023-07-31T15:28:20;19.40;99.90
65046;DHT22;54657;52.022;5.534;2023-07-31T15:30:46;19.40;99.90
65046;DHT22;54657;52.022;5.534;2023-07-31T15:33:11;19.30;99.90
65046;DHT22;54657;52.022;5.534;2023-07-31T15:35:37;19.30;99.90
65046;DHT22;54657;52.022;5.534;2023-07-31T15:38:02;19.30;99.90
65046;DHT22;54657;52.022;5.534;2023-07-31T15:40:28;19.30;99.90
65046;DHT22;54657;52.022;5.534;2023-07-31T15:42:54;19.30;99.90
65046;DHT22;54657;52.022;5.534;2023-07-31T15:45:19;19.30;99.90
65046;DHT22;54657;52.022;5.534;2023-07-31T15:47:45;19.30;99.90
65046;DHT22;54657;52.022;5.534;2023-07-31T15:50:10;19.30;99.90